Garfield County Regional Airport
KRIL : now visible

Airfield :











YOU CAN JOIN US ON...

 
LOGIN :

Register | Disclaimer

   EN    FR    IT 

 









Legend :    VFR   Marginal VFR   IFR   Intensive IFR   Very Intensive IFR
Visi :
Ceiling :
>= 8 km
>= 3000ft
5 to 8 km
1000 to 3000 ft
1500m to 5 km
500 to 1000 ft
800 to 1500m
200 to 500 ft
< 800m
< 200 ft
Symbols :   Thunderstorms  Fog  Heavy snow  Heavy precipitations  Wind > 20 kt






- Airport Elevation : 5548 ft


KRIL - Garfield County Regional

CURRENT METAR :
  • 261553Z AUTO VRB03KT 10SM CLR 12/04 A3012 RMK AO2 SLP170 T01170039

EXPIRED METARs :
  • 261453Z AUTO 25003KT 10SM CLR 09/05 A3013 RMK AO2 SLP178 T00940050 51017
  • 261353Z AUTO 00000KT 10SM BKN075 OVC090 08/04 A3013 RMK AO2 SLP177 T00780044
  • 261253Z AUTO 25003KT 10SM OVC090 06/05 A3011 RMK AO2 SLP174 T00610050
  • 261153Z AUTO 12004KT 10SM FEW090 04/02 A3008 RMK AO2 SLP154 60001 70026 T00440022 10094 20044 53012

TAF KRIL
Valid from the 26 at 15:00 until the 27 at 12:00 UTC


261440Z 2615/2712 21005KT P6SM SCT050 BKN070
FM261700 27006KT P6SM FEW045 SCT070
FM270200 14005KT P6SM FEW080
KZDV FIR / North America



MET'MAP, your aeronautical weather chart ! - Copyright ORBIFLY December 2007 - Disclaimer

ORBIFLY MET'MAP TEAM :

Programming & Development : Alexandra Zaïnal
Original concept : Baudouin d'Aumeries
Technical & hardware support : Manuel Goepfert
Assistance : Marc-Olivier Méhu




SOURCES & CREDITS :

   NOAA       Earth
Advisory